Atlanta, GA (30348)

9:25 AM EDT on November 01, 2014 (GMT -0400)
Buckhead: The Wakefield | Change Station
CLOSE
Current Station
Personal Weather Station
Location: Atlanta, GA
Elevation: 1240 ft
Nearby Weather Stations

Elev 1240 ft 33.83 °N, 84.39 °W | Updated 24 minutes ago

Overcast
Overcast
38.3 °F
Feels Like 30 °F
N
13.0
Wind Variable Wind from SSE
Gusts 13.0 mph

Today
High -- | Low -- °F
--% Chance of Precip.
Yesterday
High -- | Low -- °F
Precip. -- in
7:56 AM 6:44 PM
Waxing Gibbous, 66% visible
Pressure 29.99 in
Visibility 10.0 miles
Clouds Few 2900 ft
Mostly Cloudy 3700 ft
Windchill 30 °F
Dew Point 30 °F
Humidity 71%
Rainfall 0.00 in
Snow Depth Not available.
UV 0 out of 12
Pollen 2.30 out of 12
Air Quality Not available.
Flu Activity Not available.
METAR KPDK 011253Z 32027G39KT 10SM FEW029 BKN037 04/M03 A2997 RMK AO2 PK WND 32039/1253 SLP155 T00391028

More Conditions Fewer Conditions

Pressure 29.99 in
Visibility 10.0 miles
Clouds Few 2900 ft
Mostly Cloudy 3700 ft
Windchill 30 °F
Dew Point 30 °F
Humidity 71%
Rainfall 0.00 in
Snow Depth Not available.
UV 0 out of 12
Pollen 2.30 out of 12
Air Quality Not available.
Flu Activity Not available.
METAR KPDK 011253Z 32027G39KT 10SM FEW029 BKN037 04/M03 A2997 RMK AO2 PK WND 32039/1253 SLP155 T00391028

More Conditions Fewer Conditions

10-Day Weather Forecast

Almanac

Astronomy

Nov. 01, 2014 Rise Set
Actual Time
Civil Twilight
Nautical Twilight
Astronomical Twilight
Moon
Length of Visible Light
Length of Day
Tomorrow will be .
, % of the Moon is Illuminated

Today's Extremes

State Highs State Lows

Community

WunderPhotos

Upload Photos

1,766,931 photos uploaded!

WunderBlogs® & News

Nearby

Air Quality

  Air Quality AQ Index Pollutant
Not available.

Snow Depth

Station Depth Elevation

Earthquake Activity

City Distance Mag. Time & Date
Minimum magnitude displayed is 2.5.

Coastal Water Temperatures

Place Temperature

Nearby Weather Stations